createdAt,value
2023-01-17T00:02:25.173Z,4.65
2023-01-17T00:05:10.451Z,4.15
2023-01-17T00:07:55.865Z,4.90
2023-01-17T00:10:24.878Z,4.25
2023-01-17T00:12:53.990Z,4.28
2023-01-17T00:15:22.903Z,4.88
2023-01-17T00:17:50.196Z,4.78
2023-01-17T00:20:37.683Z,4.28
2023-01-17T00:23:30.604Z,4.82
2023-01-17T00:28:40.712Z,3.28
2023-01-17T00:31:09.050Z,3.05
2023-01-17T00:33:35.742Z,3.40
2023-01-17T00:36:03.627Z,3.88
2023-01-17T00:38:32.994Z,3.83
2023-01-17T00:41:05.210Z,3.40
2023-01-17T00:43:50.873Z,4.03
2023-01-17T00:46:36.806Z,3.70
2023-01-17T00:49:21.952Z,3.67
2023-01-17T00:52:07.340Z,3.70
2023-01-17T00:54:52.820Z,3.50
2023-01-17T00:57:37.865Z,3.80
2023-01-17T01:00:23.664Z,3.28
2023-01-17T01:03:09.319Z,2.88
2023-01-17T01:05:55.959Z,3.30
2023-01-17T01:08:46.827Z,3.35
2023-01-17T01:11:35.291Z,3.15
2023-01-17T01:14:21.268Z,3.15
2023-01-17T01:17:06.576Z,2.70
2023-01-17T01:19:52.606Z,3.08
2023-01-17T01:22:38.075Z,2.80
2023-01-17T01:25:24.032Z,2.85
2023-01-17T01:28:09.617Z,3.40
2023-01-17T01:30:55.055Z,3.03
2023-01-17T01:33:21.647Z,3.35
2023-01-17T01:35:53.875Z,2.80
2023-01-17T01:38:23.091Z,3.17
2023-01-17T01:40:53.086Z,2.50
2023-01-17T01:43:44.984Z,2.28
2023-01-17T01:46:16.661Z,2.17
2023-01-17T01:49:17.455Z,2.50
2023-01-17T01:51:53.151Z,2.35
2023-01-17T01:54:28.251Z,2.28
2023-01-17T01:56:57.757Z,2.20
2023-01-17T01:59:25.807Z,2.13
2023-01-17T02:01:55.868Z,2.97
2023-01-17T02:04:23.411Z,1.83
2023-01-17T02:06:56.012Z,2.25
2023-01-17T02:09:23.646Z,2.42
2023-01-17T02:11:50.451Z,2.72
2023-01-17T02:14:18.422Z,2.45
2023-01-17T02:17:02.958Z,2.15
2023-01-17T02:20:04.256Z,2.05
2023-01-17T02:23:14.830Z,1.58
2023-01-17T02:26:29.551Z,2.35
2023-01-17T02:29:28.414Z,1.60
2023-01-17T02:32:09.528Z,1.98
2023-01-17T02:34:51.290Z,1.90
2023-01-17T02:37:34.785Z,1.60
2023-01-17T02:40:08.747Z,1.80
2023-01-17T02:42:42.656Z,1.75
2023-01-17T02:45:14.721Z,1.50
2023-01-17T02:47:41.346Z,1.98
2023-01-17T02:50:12.347Z,1.52
2023-01-17T02:53:32.546Z,1.30
2023-01-17T02:56:48.349Z,1.63
2023-01-17T02:59:27.295Z,1.60
2023-01-17T03:02:17.013Z,1.45
2023-01-17T03:05:01.641Z,1.42
2023-01-17T03:07:29.873Z,1.33
2023-01-17T03:10:00.895Z,1.60
2023-01-17T03:12:29.713Z,1.42
2023-01-17T03:14:56.414Z,1.58
2023-01-17T03:17:28.305Z,1.30
2023-01-17T03:19:54.958Z,3.80
2023-01-17T03:22:21.615Z,755.38
2023-01-17T03:24:48.256Z,706.33
2023-01-17T03:27:14.970Z,674.92
2023-01-17T03:29:41.601Z,329.27
2023-01-17T03:32:08.191Z,117.68
2023-01-17T03:34:34.814Z,45.63
2023-01-17T03:37:01.476Z,45.47
2023-01-17T03:39:28.183Z,41.28
2023-01-17T03:41:54.779Z,38.08
2023-01-17T03:44:21.395Z,31.50
2023-01-17T03:46:48.002Z,23.30
2023-01-17T03:49:15.070Z,15.55
2023-01-17T03:51:41.708Z,11.95
2023-01-17T03:54:08.584Z,9.32
2023-01-17T03:56:35.212Z,6.47
2023-01-17T03:59:02.017Z,3.83
2023-01-17T04:01:28.844Z,3.35
2023-01-17T04:03:55.509Z,2.47
2023-01-17T04:06:22.181Z,3.00
2023-01-17T04:08:48.868Z,2.25
2023-01-17T04:11:15.536Z,2.72
2023-01-17T04:13:42.170Z,2.38
2023-01-17T04:16:14.312Z,1.88
2023-01-17T04:18:41.191Z,2.20
2023-01-17T04:21:08.233Z,3.13
2023-01-17T04:23:35.317Z,1.95
2023-01-17T04:26:03.614Z,1.92
2023-01-17T04:28:31.759Z,3.70
2023-01-17T04:30:59.966Z,2.78
2023-01-17T04:33:26.826Z,3.63
2023-01-17T04:35:54.330Z,3.40
2023-01-17T04:38:23.808Z,2.30
2023-01-17T04:40:51.408Z,2.33
2023-01-17T04:43:18.088Z,2.67
2023-01-17T04:45:44.749Z,1.95
2023-01-17T04:48:12.708Z,2.45
2023-01-17T04:50:40.255Z,1.90
2023-01-17T04:53:06.927Z,1.38
2023-01-17T04:55:33.545Z,1.70
2023-01-17T04:58:00.180Z,2.28
2023-01-17T05:00:26.776Z,1.50
2023-01-17T05:02:53.507Z,1.63
2023-01-17T05:05:20.246Z,2.47
2023-01-17T05:07:54.461Z,1.52
2023-01-17T05:10:21.080Z,1.67
2023-01-17T05:12:58.948Z,1.42
2023-01-17T05:15:26.743Z,1.38
2023-01-17T05:17:54.149Z,2.28
2023-01-17T05:20:22.393Z,2.13
2023-01-17T05:22:56.399Z,2.55
2023-01-17T05:25:24.707Z,1.90
2023-01-17T05:27:51.529Z,2.17
2023-01-17T05:30:18.859Z,1.60
2023-01-17T05:32:49.273Z,1.70
2023-01-17T05:35:19.604Z,1.70
2023-01-17T05:37:49.118Z,1.65
2023-01-17T05:40:27.327Z,1.90
2023-01-17T05:42:56.015Z,2.10
2023-01-17T05:45:24.671Z,1.45
2023-01-17T05:47:53.172Z,1.95
2023-01-17T05:50:29.174Z,1.77
2023-01-17T05:53:01.941Z,1.60
2023-01-17T05:55:29.181Z,1.35
2023-01-17T05:57:56.155Z,2.00
2023-01-17T06:00:23.365Z,2.28
2023-01-17T06:02:50.295Z,1.70
2023-01-17T06:05:17.154Z,1.77
2023-01-17T06:07:45.505Z,1.30
2023-01-17T06:10:16.387Z,1.30
2023-01-17T06:12:44.317Z,1.15
2023-01-17T06:15:12.409Z,1.30
2023-01-17T06:17:39.385Z,1.60
2023-01-17T06:20:08.613Z,1.45
2023-01-17T06:22:35.647Z,0.90
2023-01-17T06:25:02.238Z,0.95
2023-01-17T06:27:28.949Z,1.75
2023-01-17T06:29:55.574Z,2.60
2023-01-17T06:32:22.206Z,1.90
2023-01-17T06:34:48.828Z,3.10
2023-01-17T06:37:15.502Z,3.35
2023-01-17T06:39:42.294Z,1.88
2023-01-17T06:42:08.937Z,2.22
2023-01-17T06:44:35.559Z,2.28
2023-01-17T06:47:02.194Z,1.50
2023-01-17T06:49:28.792Z,0.93
2023-01-17T06:51:55.433Z,1.63
2023-01-17T06:54:22.084Z,3.15
2023-01-17T06:56:48.687Z,3.40
2023-01-17T06:59:15.298Z,3.10
2023-01-17T07:01:41.964Z,4.65
2023-01-17T07:04:08.712Z,2.67
2023-01-17T07:06:36.575Z,3.65
2023-01-17T07:09:04.313Z,3.33
2023-01-17T07:11:31.881Z,2.65
2023-01-17T07:13:58.718Z,1.95
2023-01-17T07:16:25.534Z,1.90
2023-01-17T07:18:54.710Z,1.30
2023-01-17T07:21:21.435Z,1.70
2023-01-17T07:23:48.693Z,2.00
2023-01-17T07:26:17.300Z,1.88
2023-01-17T07:28:44.192Z,1.80
2023-01-17T07:31:11.035Z,1.67
2023-01-17T07:33:37.762Z,2.70
2023-01-17T07:36:08.582Z,2.90
2023-01-17T07:38:35.547Z,6.03
2023-01-17T07:41:02.685Z,4.32
2023-01-17T07:43:29.401Z,2.85
2023-01-17T07:45:56.158Z,2.97
2023-01-17T07:48:24.598Z,2.80
2023-01-17T07:50:57.310Z,3.72
2023-01-17T07:53:26.529Z,2.58
2023-01-17T07:55:53.838Z,2.50
2023-01-17T07:58:20.989Z,2.67
2023-01-17T08:00:48.045Z,2.00
2023-01-17T08:03:17.398Z,1.70
2023-01-17T08:05:52.968Z,1.90
2023-01-17T08:08:19.800Z,1.48
2023-01-17T08:10:46.458Z,1.42
2023-01-17T08:13:13.136Z,1.40
2023-01-17T08:15:39.775Z,1.70
2023-01-17T08:18:06.376Z,0.82
2023-01-17T08:20:33.021Z,0.93
2023-01-17T08:22:59.845Z,1.30
2023-01-17T08:25:26.848Z,1.58
2023-01-17T08:27:58.010Z,0.98
2023-01-17T08:30:25.889Z,1.50
2023-01-17T08:32:52.779Z,1.00
2023-01-17T08:35:20.220Z,1.02
2023-01-17T08:37:47.917Z,1.63
2023-01-17T08:40:17.576Z,1.90
2023-01-17T08:42:44.296Z,1.48
2023-01-17T08:45:12.178Z,1.52
2023-01-17T08:47:38.928Z,2.05
2023-01-17T08:50:06.955Z,1.00
2023-01-17T08:52:33.876Z,1.20
2023-01-17T08:55:00.536Z,0.95
2023-01-17T08:57:27.502Z,1.00
2023-01-17T08:59:54.100Z,1.00
2023-01-17T09:02:20.749Z,1.08
2023-01-17T09:04:48.936Z,0.70
2023-01-17T09:07:17.495Z,0.80
2023-01-17T09:09:44.618Z,0.77
2023-01-17T09:12:11.244Z,0.85
2023-01-17T09:14:38.369Z,0.93
2023-01-17T09:17:07.998Z,0.98
2023-01-17T09:19:35.507Z,0.60
2023-01-17T09:22:04.233Z,0.70
2023-01-17T09:24:32.713Z,0.90
2023-01-17T09:26:59.966Z,0.80
2023-01-17T09:29:26.662Z,0.70
2023-01-17T09:31:53.277Z,0.60
2023-01-17T09:34:19.978Z,0.93
2023-01-17T09:36:46.693Z,0.90
2023-01-17T09:39:15.292Z,0.80
2023-01-17T09:42:19.794Z,0.60
2023-01-17T09:44:51.467Z,0.70
2023-01-17T09:47:52.537Z,0.90
2023-01-17T09:50:37.347Z,0.80
2023-01-17T09:53:11.287Z,1.30
2023-01-17T09:55:49.060Z,0.52
2023-01-17T09:58:21.910Z,0.77
2023-01-17T10:01:27.679Z,0.90
2023-01-17T10:04:20.543Z,0.65
2023-01-17T10:07:38.406Z,0.60
2023-01-17T10:10:47.347Z,0.88
2023-01-17T10:13:42.247Z,0.80
2023-01-17T10:16:37.870Z,0.70
2023-01-17T10:19:28.168Z,0.80
2023-01-17T10:22:12.587Z,0.70
2023-01-17T10:25:20.078Z,0.82
2023-01-17T10:28:03.194Z,0.70
2023-01-17T10:30:49.109Z,0.90
2023-01-17T10:33:28.691Z,0.93
2023-01-17T10:36:15.381Z,1.23
2023-01-17T10:38:47.442Z,0.90
2023-01-17T10:41:29.961Z,1.08
2023-01-17T10:44:23.368Z,1.17
2023-01-17T10:47:04.214Z,0.77
2023-01-17T10:49:31.078Z,0.70
2023-01-17T10:52:11.561Z,1.17
2023-01-17T10:55:10.080Z,1.00
2023-01-17T10:57:43.237Z,1.38
2023-01-17T11:00:44.346Z,1.05
2023-01-17T11:03:16.385Z,0.90
2023-01-17T11:05:43.537Z,1.20
2023-01-17T11:08:13.615Z,1.02
2023-01-17T11:10:44.580Z,1.25
2023-01-17T11:13:38.729Z,1.33
2023-01-17T11:16:09.952Z,1.17
2023-01-17T11:18:39.600Z,0.82
2023-01-17T11:21:17.405Z,1.45
2023-01-17T11:23:49.693Z,1.00
2023-01-17T11:26:34.389Z,1.20
2023-01-17T11:29:38.854Z,1.02
2023-01-17T11:32:32.016Z,1.20
2023-01-17T11:35:32.463Z,3.00
2023-01-17T11:38:07.783Z,1.77
2023-01-17T11:40:47.622Z,1.23
2023-01-17T11:43:21.117Z,1.52
2023-01-17T11:46:15.454Z,1.48
2023-01-17T11:48:46.545Z,1.02
2023-01-17T11:51:31.271Z,1.10
2023-01-17T11:54:16.592Z,1.00
2023-01-17T11:56:46.270Z,0.73
2023-01-17T11:59:22.105Z,1.00
2023-01-17T12:02:46.846Z,1.88
2023-01-17T12:05:42.339Z,1.48
2023-01-17T12:08:30.401Z,1.42
2023-01-17T12:11:10.202Z,1.50
2023-01-17T12:14:22.337Z,1.50
2023-01-17T12:17:19.515Z,1.38
2023-01-17T12:20:01.604Z,2.08
2023-01-17T12:23:08.906Z,1.58
2023-01-17T12:26:25.004Z,1.45
2023-01-17T12:29:21.627Z,1.38
2023-01-17T12:32:06.817Z,0.90
2023-01-17T12:34:43.601Z,1.60
2023-01-17T12:37:24.701Z,1.30
2023-01-17T12:40:03.409Z,1.15
2023-01-17T12:42:37.047Z,1.35
2023-01-17T12:45:24.496Z,1.60
2023-01-17T12:47:59.061Z,1.48
2023-01-17T12:50:41.085Z,1.77
2023-01-17T12:53:18.189Z,1.80
2023-01-17T12:56:28.577Z,1.20
2023-01-17T12:59:04.147Z,1.20
2023-01-17T13:01:43.136Z,1.33
2023-01-17T13:04:46.924Z,2.28
2023-01-17T13:07:42.721Z,1.27
2023-01-17T13:10:25.103Z,1.25
2023-01-17T13:12:54.671Z,1.17
2023-01-17T13:15:28.448Z,1.40
2023-01-17T13:18:09.470Z,1.10
2023-01-17T13:20:56.252Z,1.50
2023-01-17T13:23:30.736Z,1.50
2023-01-17T13:25:59.882Z,1.58
2023-01-17T13:28:42.710Z,2.15
2023-01-17T13:31:20.411Z,1.48
2023-01-17T13:34:08.906Z,1.63
2023-01-17T13:37:20.651Z,2.20
2023-01-17T13:40:16.783Z,2.38
2023-01-17T13:43:00.097Z,6.63
2023-01-17T13:45:34.865Z,2.50
2023-01-17T13:48:25.694Z,3.55
2023-01-17T13:51:06.065Z,3.05
2023-01-17T13:53:35.685Z,3.45
2023-01-17T13:56:27.756Z,3.90
2023-01-17T13:59:02.098Z,110.13
2023-01-17T14:01:38.359Z,7.32
2023-01-17T14:04:10.588Z,4.75
2023-01-17T14:06:46.431Z,3.53
2023-01-17T14:09:19.207Z,8.95
2023-01-17T14:12:02.429Z,12.70
2023-01-17T14:14:46.487Z,12.50
2023-01-17T14:17:23.133Z,5.43
2023-01-17T14:19:52.693Z,15.07
2023-01-17T14:22:30.089Z,2.72
2023-01-17T14:25:19.014Z,8.00
2023-01-17T14:27:50.322Z,4.68
2023-01-17T14:30:36.639Z,5.65
2023-01-17T14:33:12.716Z,2.80
2023-01-17T14:35:49.822Z,5.25
2023-01-17T14:38:22.005Z,3.42
2023-01-17T14:41:15.786Z,4.85
2023-01-17T14:43:43.703Z,3.67
2023-01-17T14:46:21.725Z,6.28
2023-01-17T14:48:48.550Z,21.00
2023-01-17T14:51:21.322Z,7.13
2023-01-17T14:53:59.308Z,13.48
2023-01-17T14:56:28.226Z,7.28
2023-01-17T14:59:27.144Z,8.70
2023-01-17T15:02:08.268Z,6.88
2023-01-17T15:04:39.466Z,19.13
2023-01-17T15:07:07.436Z,56.13
2023-01-17T15:09:37.491Z,66.43
2023-01-17T15:12:08.052Z,11.48
2023-01-17T15:14:38.449Z,7.72
2023-01-17T15:17:18.542Z,10.45
2023-01-17T15:19:53.914Z,21.90
2023-01-17T15:22:20.901Z,19.90
2023-01-17T15:24:49.185Z,8.90
2023-01-17T15:27:16.970Z,34.28
2023-01-17T15:29:45.434Z,19.17
2023-01-17T15:32:19.938Z,7.82
2023-01-17T15:34:49.058Z,6.05
2023-01-17T15:37:34.709Z,6.03
2023-01-17T15:40:22.789Z,8.38
2023-01-17T15:42:53.274Z,8.40
2023-01-17T15:45:24.394Z,10.05
2023-01-17T15:47:51.082Z,10.35
2023-01-17T15:50:30.582Z,4.10
2023-01-17T15:53:02.809Z,4.97
2023-01-17T15:55:48.120Z,51.78
2023-01-17T15:58:27.189Z,9.15
2023-01-17T16:00:54.241Z,7.47
2023-01-17T16:03:31.812Z,9.00
2023-01-17T16:06:01.184Z,9.18
2023-01-17T16:08:39.679Z,14.65
2023-01-17T16:11:08.166Z,12.38
2023-01-17T16:13:42.224Z,5.93
2023-01-17T16:16:24.584Z,6.63
2023-01-17T16:18:59.121Z,6.28
2023-01-17T16:21:29.445Z,12.57
2023-01-17T16:23:56.523Z,11.98
2023-01-17T16:26:25.686Z,10.00
2023-01-17T16:28:52.384Z,9.63
2023-01-17T16:31:19.519Z,22.27
2023-01-17T16:33:49.109Z,8.55
2023-01-17T16:36:16.679Z,13.77
2023-01-17T16:38:45.483Z,15.48
2023-01-17T16:41:12.400Z,12.40
2023-01-17T16:43:39.050Z,15.65
2023-01-17T16:46:06.129Z,6.18
2023-01-17T16:48:32.800Z,5.22
2023-01-17T16:50:59.582Z,52.75
2023-01-17T16:53:28.204Z,13.25
2023-01-17T16:56:05.276Z,14.32
2023-01-17T16:58:31.907Z,9.30
2023-01-17T17:01:00.277Z,8.48
2023-01-17T17:03:27.031Z,3.97
2023-01-17T17:05:58.538Z,3.90
2023-01-17T17:08:25.341Z,3.28
2023-01-17T17:10:52.111Z,4.68
2023-01-17T17:13:18.788Z,4.50
2023-01-17T17:15:45.748Z,4.75
2023-01-17T17:18:17.249Z,2.50
2023-01-17T17:20:44.760Z,3.85
2023-01-17T17:23:11.596Z,3.63
2023-01-17T17:25:38.710Z,4.05
2023-01-17T17:28:06.120Z,2.92
2023-01-17T17:30:33.383Z,2.97
2023-01-17T17:33:00.168Z,4.30
2023-01-17T17:35:26.946Z,28.30
2023-01-17T17:37:54.037Z,14.60
2023-01-17T17:40:20.894Z,11.85
2023-01-17T17:42:47.494Z,3.70
2023-01-17T17:45:14.214Z,3.10
2023-01-17T17:47:40.791Z,3.22
2023-01-17T17:50:08.166Z,3.20
2023-01-17T17:52:34.986Z,2.58
2023-01-17T17:55:01.612Z,3.85
2023-01-17T17:57:28.162Z,2.65
2023-01-17T17:59:56.770Z,2.85
2023-01-17T18:02:23.455Z,2.53
2023-01-17T18:04:50.292Z,2.65
2023-01-17T18:07:17.162Z,2.72
2023-01-17T18:09:43.795Z,3.08
2023-01-17T18:12:10.373Z,2.25
2023-01-17T18:14:37.023Z,2.28
2023-01-17T18:17:03.652Z,2.65
2023-01-17T18:19:30.286Z,2.22
2023-01-17T18:21:58.119Z,3.33
2023-01-17T18:24:27.145Z,2.92
2023-01-17T18:26:57.684Z,2.88
2023-01-17T18:29:26.034Z,2.83
2023-01-17T18:31:53.831Z,2.50
2023-01-17T18:34:29.024Z,2.88
2023-01-17T18:36:55.859Z,3.08
2023-01-17T18:39:29.866Z,4.15
2023-01-17T18:41:56.705Z,3.30
2023-01-17T18:44:23.360Z,3.90
2023-01-17T18:46:52.469Z,3.60
2023-01-17T18:49:19.524Z,2.80
2023-01-17T18:51:50.404Z,2.75
2023-01-17T18:54:18.128Z,2.72
2023-01-17T18:56:44.813Z,2.65
2023-01-17T18:59:12.988Z,2.90
2023-01-17T19:01:43.551Z,3.17
2023-01-17T19:04:12.133Z,3.22
2023-01-17T19:06:41.290Z,2.60
2023-01-17T19:09:09.331Z,2.97
2023-01-17T19:11:36.753Z,3.20
2023-01-17T19:14:04.055Z,2.88
2023-01-17T19:16:34.699Z,3.53
2023-01-17T19:19:03.955Z,4.65
2023-01-17T19:21:31.077Z,3.30
2023-01-17T19:23:58.865Z,3.42
2023-01-17T19:26:27.397Z,2.53
2023-01-17T19:29:05.095Z,2.95
2023-01-17T19:31:35.725Z,2.60
2023-01-17T19:34:02.668Z,2.88
2023-01-17T19:36:34.434Z,2.90
2023-01-17T19:39:05.399Z,3.28
2023-01-17T19:41:35.066Z,2.87
2023-01-17T19:44:06.701Z,2.85
2023-01-17T19:46:34.309Z,3.38
2023-01-17T19:49:01.517Z,3.65
2023-01-17T19:51:28.844Z,3.22
2023-01-17T19:53:56.769Z,2.83
2023-01-17T19:56:26.192Z,3.55
2023-01-17T19:58:53.237Z,3.60
2023-01-17T20:01:27.379Z,3.15
2023-01-17T20:03:57.509Z,7.95
2023-01-17T20:06:27.523Z,4.20
2023-01-17T20:08:54.428Z,4.05
2023-01-17T20:11:22.819Z,4.97
2023-01-17T20:13:54.403Z,3.60
2023-01-17T20:16:22.633Z,3.10
2023-01-17T20:18:51.838Z,4.00
2023-01-17T20:21:24.552Z,3.45
2023-01-17T20:23:52.666Z,4.35
2023-01-17T20:26:34.355Z,4.60
2023-01-17T20:29:10.794Z,3.53
2023-01-17T20:31:38.396Z,3.65
2023-01-17T20:34:06.529Z,3.72
2023-01-17T20:36:33.227Z,3.17
2023-01-17T20:39:00.885Z,3.50
2023-01-17T20:41:43.535Z,3.92
2023-01-17T20:44:15.612Z,4.25
2023-01-17T20:46:43.416Z,4.32
2023-01-17T20:49:15.816Z,3.75
2023-01-17T20:51:44.310Z,4.00
2023-01-17T20:54:14.286Z,3.58
2023-01-17T20:56:41.665Z,3.53
2023-01-17T20:59:12.174Z,4.07
2023-01-17T21:01:38.987Z,4.35
2023-01-17T21:04:10.048Z,3.90
2023-01-17T21:06:41.585Z,3.95
2023-01-17T21:09:11.936Z,4.32
2023-01-17T21:11:38.530Z,4.78
2023-01-17T21:14:05.936Z,3.65
2023-01-17T21:16:34.207Z,3.92
2023-01-17T21:19:01.423Z,3.88
2023-01-17T21:21:29.243Z,4.00
2023-01-17T21:23:59.935Z,3.67
2023-01-17T21:26:28.585Z,3.83
2023-01-17T21:28:55.819Z,4.07
2023-01-17T21:31:25.849Z,4.25
2023-01-17T21:33:57.989Z,2.97
2023-01-17T21:36:27.698Z,3.53
2023-01-17T21:38:57.193Z,3.28
2023-01-17T21:41:30.162Z,3.08
2023-01-17T21:44:00.191Z,3.13
2023-01-17T21:46:27.761Z,4.28
2023-01-17T21:48:56.675Z,3.33
2023-01-17T21:51:24.355Z,2.88
2023-01-17T21:53:51.017Z,3.42
2023-01-17T21:56:36.512Z,3.60
2023-01-17T21:59:03.227Z,3.65
2023-01-17T22:01:32.775Z,3.15
2023-01-17T22:04:01.593Z,14.05
2023-01-17T22:06:38.568Z,4.72
2023-01-17T22:09:06.301Z,3.55
2023-01-17T22:11:35.775Z,2.90
2023-01-17T22:14:05.212Z,3.10
2023-01-17T22:16:32.201Z,2.97
2023-01-17T22:18:59.072Z,3.35
2023-01-17T22:21:28.301Z,3.60
2023-01-17T22:23:59.426Z,3.42
2023-01-17T22:26:28.865Z,4.38
2023-01-17T22:28:55.909Z,3.42
2023-01-17T22:31:25.567Z,3.30
2023-01-17T22:33:53.889Z,7.20
2023-01-17T22:36:21.528Z,8.18
2023-01-17T22:38:48.494Z,5.38
2023-01-17T22:41:19.969Z,9.00
2023-01-17T22:43:52.340Z,9.02
2023-01-17T22:46:28.292Z,8.25
2023-01-17T22:48:57.288Z,12.88
2023-01-17T22:51:26.065Z,9.27
2023-01-17T22:53:55.626Z,10.55
2023-01-17T22:56:28.204Z,9.32
2023-01-17T23:01:26.629Z,6.78
2023-01-17T23:03:57.082Z,8.48
2023-01-17T23:06:32.098Z,17.55
2023-01-17T23:09:02.378Z,43.67
2023-01-17T23:11:52.565Z,30.33
2023-01-17T23:14:26.524Z,11.68
2023-01-17T23:17:22.036Z,11.05
2023-01-17T23:19:51.157Z,6.50
2023-01-17T23:22:29.097Z,6.32
2023-01-17T23:25:14.657Z,7.18
2023-01-17T23:28:05.129Z,5.68
2023-01-17T23:30:40.258Z,5.32
2023-01-17T23:33:12.117Z,6.82
2023-01-17T23:35:42.191Z,5.15
2023-01-17T23:38:33.825Z,6.97
2023-01-17T23:41:26.560Z,5.70
2023-01-17T23:43:57.552Z,6.32
2023-01-17T23:46:25.551Z,5.28
2023-01-17T23:48:52.682Z,4.22
2023-01-17T23:51:19.305Z,4.80
2023-01-17T23:53:45.990Z,5.22
2023-01-17T23:56:23.130Z,4.45
2023-01-17T23:58:50.256Z,4.70
